Terminal Aerodrome Forecast
Issued by NWS Cleveland, OH

Home | Current Version | Previous Version | Graphics & Text | Print | Product List | Glossary On
Versions: 1 2 3 4 5 6 7 8 9 10 11 12 13 14 15 16 17 18 19 20 21 22 23 24 25 26
000
FTUS41 KCLE 240100 AAA
TAFERI
TAF AMD
KERI 240156Z 2402/2424 VRB03KT 5SM BR BKN150 OVC250
     FM240600 23008KT P6SM SCT025 OVC120
      TEMPO 2409/2413 BKN025 OVC120
     FM242100 26010KT 4SM -SN BR SCT006 OVC012 PROB30 2421/2424
      -FZDZ OVC006=

USA.gov is the U.S. government's official web portal to all federal, state and local government web resources and services.